Contact2017-01-16T18:42:02+00:00

Contact & Connect

262-AX-PILOT (297-4568) • info@flyaxiom.com

Your Name (required)

Your Email (required)

Your Message

Current METAR

KOGD 221753Z 19008KT 10SM OVC038 13/04 A3015 RMK AO2 SLP185 60000 T01280039 10139 20083 53005